Kurumoch International Airport
UWWW : now visible

Airfield :











YOU CAN JOIN US ON...

 
LOGIN :

Register | Disclaimer

   EN    FR    IT 

 









Legend :    VFR   Marginal VFR   IFR   Intensive IFR   Very Intensive IFR
Visi :
Ceiling :
>= 8 km
>= 3000ft
5 to 8 km
1000 to 3000 ft
1500m to 5 km
500 to 1000 ft
800 to 1500m
200 to 500 ft
< 800m
< 200 ft
Symbols :   Thunderstorms  Fog  Heavy snow  Heavy precipitations  Wind > 20 kt






- Airport Elevation : 477 ft
- IATA code : KUF


UWWW - Kurumoch International

CURRENT METAR :
  • 271130Z 22005MPS 200V260 9999 SCT033 03/M02 Q1007 R15/290150 NOSIG RMK QFE743/0991

EXPIRED METARs :
  • 271100Z 21004MPS 9999 SCT033 03/M02 Q1006 R15/290150 NOSIG RMK QFE743/0991
  • 271030Z 23004MPS 200V260 9999 SCT033 03/M01 Q1007 R15/290150 NOSIG RMK QFE743/0991
  • 271000Z 21003MPS 170V240 9999 SCT033 02/M01 Q1007 R15/290150 NOSIG RMK QFE743/0991
  • 270930Z 22004MPS 9999 SCT033 03/M00 Q1007 R15/290150 NOSIG RMK QFE744/0992
  • 270900Z 20004MPS 9999 BKN033 02/M00 Q1007 R15/290150 NOSIG RMK QFE744/0992

TAF TAF UWWW
Valid from the 27 at 12:00 until the 28 at 12:00 UTC


271059Z 2712/2812 18005G10MPS 9999 BKN015 TX03/2712Z TN01/2803Z
TEMPO 2712/2716 20007G13MPS -RA FEW007
BECMG 2716/2718 5000 BR
TEMPO 2718/2809 19007G13MPS 3100 -RA BR FEW005 SCT007
TEMPO 2809/2812 15008G15MPS



MET'MAP, your aeronautical weather chart ! - Copyright ORBIFLY December 2007 - Disclaimer

ORBIFLY MET'MAP TEAM :

Programming & Development : Alexandra Zaïnal
Concept & original design : Baudouin d'Aumeries
Assistance for programming : Marc-Olivier Méhu
Technical & hardware support : Manuel Goepfert

Contact : metmap@orbifly.com




SOURCES & CREDITS :

   NOAA       Earth
Advisory